Time;durP1;ratioP1;P1;durP2;ratioP2;P2;SDS_P1;SDS_P2;PMS_P1;PMS_P2;Temp;Humidity;BMP_temperature;BMP_pressure;BME280_temperature;BME280_humidity;BME280_pressure;Samples;Min_cycle;Max_cycle;Signal;HPM_P1;HPM_P2
2023/03/05 00:01:23;;;;;;;27.55;13.23;;;2.80;99.90;;;2.00;100.00;97523.00;4943039;28;20048;-41
2023/03/05 00:03:53;;;;;;;25.85;12.98;;;2.80;99.90;;;2.02;100.00;97526.44;4947964;28;20050;-41
2023/03/05 00:06:21;;;;;;;24.55;12.60;;;2.80;99.90;;;2.02;100.00;97526.44;4948781;28;20040;-41
2023/03/05 00:08:48;;;;;;;23.98;12.13;;;2.90;99.90;;;2.06;100.00;97535.13;4948892;28;20026;-41
2023/03/05 00:11:14;;;;;;;22.30;12.05;;;2.90;99.90;;;2.06;100.00;97525.59;4942797;28;20031;-40
2023/03/05 00:13:40;;;;;;;24.85;12.75;;;2.90;99.90;;;2.07;100.00;97529.06;4937626;28;20046;-41
2023/03/05 00:16:10;;;;;;;25.17;11.65;;;2.90;99.90;;;1.96;100.00;97512.59;4938588;28;20578;-41
2023/03/05 00:18:36;;;;;;;23.80;12.13;;;2.90;99.90;;;2.08;100.00;97520.38;4950266;28;20289;-41
2023/03/05 00:21:02;;;;;;;21.27;11.43;;;2.90;99.90;;;2.10;100.00;97527.31;4928376;28;20442;-40
2023/03/05 00:23:28;;;;;;;23.67;12.25;;;2.90;99.90;;;2.13;100.00;97523.84;4944792;28;20475;-40
2023/03/05 00:25:54;;;;;;;22.42;11.75;;;2.90;99.90;;;2.11;100.00;97515.16;4945000;28;20035;-40
2023/03/05 00:28:19;;;;;;;22.27;10.98;;;2.90;99.90;;;2.16;100.00;97522.97;4941904;28;20128;-41
2023/03/05 00:30:45;;;;;;;22.85;12.15;;;3.00;99.90;;;2.13;100.00;97517.78;4940053;28;20038;-41
2023/03/05 00:33:12;;;;;;;20.90;11.43;;;3.00;99.90;;;2.09;100.00;97506.50;4947228;28;20035;-41
2023/03/05 00:35:43;;;;;;;23.85;11.77;;;2.90;99.90;;;2.15;100.00;97516.03;4943357;28;20089;-41
2023/03/05 00:38:09;;;;;;;26.30;12.10;;;3.00;99.90;;;2.15;100.00;97516.03;4953540;28;20791;-41
2023/03/05 00:40:37;;;;;;;24.73;11.48;;;3.00;99.90;;;2.13;100.00;97513.44;4951576;28;20043;-41
2023/03/05 00:43:03;;;;;;;21.17;10.73;;;3.00;99.90;;;2.12;100.00;97505.63;4951962;28;20482;-41
2023/03/05 00:45:29;;;;;;;20.63;10.52;;;3.00;99.90;;;2.18;100.00;97516.03;4955535;28;20125;-41
2023/03/05 00:47:55;;;;;;;21.38;10.50;;;3.00;99.90;;;2.18;100.00;97516.91;4958086;28;20117;-41
2023/03/05 00:50:20;;;;;;;20.63;10.30;;;3.00;99.90;;;2.20;100.00;97502.13;4956820;28;20033;-41
2023/03/05 00:52:46;;;;;;;22.52;11.02;;;3.00;99.90;;;2.23;100.00;97507.34;4953880;28;21703;-41
2023/03/05 00:55:12;;;;;;;21.67;10.60;;;3.00;99.90;;;2.22;100.00;97494.34;4960109;28;20039;-41
2023/03/05 00:57:37;;;;;;;21.27;10.27;;;3.00;99.90;;;2.24;100.00;97495.19;4949330;28;20043;-41
2023/03/05 01:00:05;;;;;;;21.33;10.55;;;3.10;99.90;;;2.26;100.00;97494.34;4943790;28;20042;-41
2023/03/05 01:02:31;;;;;;;22.00;10.48;;;3.10;99.90;;;2.25;100.00;97494.34;4946288;28;20355;-41
2023/03/05 01:04:56;;;;;;;18.48;10.10;;;3.10;99.90;;;2.23;100.00;97494.34;4948891;28;21991;-41
2023/03/05 01:07:22;;;;;;;18.17;9.98;;;3.10;99.90;;;2.24;100.00;97490.88;4957899;28;20030;-41
2023/03/05 01:09:48;;;;;;;19.30;9.88;;;3.10;99.90;;;2.24;100.00;97492.59;4956279;28;20055;-41
2023/03/05 01:12:14;;;;;;;24.35;10.70;;;3.10;99.90;;;2.22;100.00;97482.19;4948902;28;20027;-41
2023/03/05 01:14:39;;;;;;;19.30;10.07;;;3.00;99.90;;;2.21;100.00;97482.22;4948102;28;20452;-41
2023/03/05 01:17:05;;;;;;;19.05;10.40;;;3.00;99.90;;;2.22;100.00;97478.72;4947291;28;20145;-41
2023/03/05 01:19:31;;;;;;;19.45;9.70;;;3.10;99.90;;;2.22;100.00;97479.56;4947343;28;20036;-41
2023/03/05 01:21:56;;;;;;;21.60;10.35;;;3.10;99.90;;;2.25;100.00;97479.56;4944296;28;21343;-41
2023/03/05 01:24:22;;;;;;;19.90;10.65;;;3.00;99.90;;;2.27;100.00;97479.56;4959740;28;20042;-41
2023/03/05 01:26:48;;;;;;;20.73;9.40;;;3.10;99.90;;;2.25;100.00;97468.31;4938030;28;20030;-41
2023/03/05 01:29:14;;;;;;;23.33;10.57;;;3.10;99.90;;;2.26;100.00;97464.81;4941756;28;20034;-41
2023/03/05 01:31:40;;;;;;;21.73;9.63;;;3.10;99.90;;;2.28;100.00;97470.91;4956888;23;20055;-55
2023/03/05 01:34:05;;;;;;;20.33;9.98;;;3.10;99.90;;;2.28;100.00;97465.72;4941455;28;20096;-52
2023/03/05 01:36:32;;;;;;;17.92;9.70;;;3.10;99.90;;;2.25;100.00;97460.50;4944837;28;20300;-52
2023/03/05 01:38:58;;;;;;;19.75;9.93;;;3.10;99.90;;;2.25;100.00;97456.16;4949904;28;20046;-53
2023/03/05 01:41:24;;;;;;;20.90;9.32;;;3.10;99.90;;;2.29;100.00;97457.00;4939644;28;20391;-53
2023/03/05 01:43:51;;;;;;;19.17;8.73;;;3.10;99.90;;;2.28;100.00;97455.31;4942805;28;20450;-51
2023/03/05 01:46:36;;;;;;;21.15;9.75;;;3.10;99.90;;;2.30;100.00;97450.94;4940695;28;20027;-52
2023/03/05 01:49:25;;;;;;;20.73;9.13;;;3.10;99.90;;;2.31;100.00;97460.47;4949886;28;20023;-52
2023/03/05 01:52:18;;;;;;;19.80;10.02;;;3.10;99.90;;;2.31;100.00;97449.19;4950244;28;20041;-54
2023/03/05 01:55:00;;;;;;;19.52;9.32;;;3.10;99.90;;;2.28;100.00;97448.34;4943261;28;20369;-54
2023/03/05 01:57:37;;;;;;;;;;;3.10;99.90;;;2.32;100.00;97445.75;4952547;28;20120;-52
2023/03/05 02:00:15;;;;;;;19.77;9.25;;;3.10;99.90;;;2.31;100.00;97442.25;4949453;28;19922;-54
2023/03/05 02:02:43;;;;;;;22.23;9.95;;;3.10;99.90;;;2.28;100.00;97435.34;4968041;28;20041;-55
2023/03/05 02:05:32;;;;;;;21.70;10.00;;;3.20;99.90;;;2.24;100.00;97433.63;4946927;28;20041;-53
2023/03/05 02:08:08;;;;;;;21.15;9.73;;;3.10;99.90;;;2.29;100.00;97429.25;4950180;28;20041;-49
2023/03/05 02:10:41;;;;;;;22.27;9.88;;;3.10;99.90;;;2.32;100.00;97427.53;4948756;28;20503;-55
2023/03/05 02:13:16;;;;;;;20.30;9.38;;;3.20;99.90;;;2.28;100.00;97418.88;4949824;28;20031;-52
2023/03/05 02:15:42;;;;;;;21.27;10.20;;;3.10;99.90;;;2.32;100.00;97411.91;4946859;28;20463;-52
2023/03/05 02:18:09;;;;;;;20.27;9.30;;;3.20;99.90;;;2.33;100.00;97421.44;4950684;28;20035;-53
2023/03/05 02:20:54;;;;;;;18.35;8.95;;;3.10;99.90;;;2.33;100.00;97411.03;4947914;28;20051;-55
2023/03/05 02:23:22;;;;;;;19.83;9.20;;;3.10;99.90;;;2.32;100.00;97412.78;4954219;28;20074;-54
2023/03/05 02:25:48;;;;;;;17.85;9.27;;;3.10;99.90;;;2.32;100.00;97411.91;4946735;28;20026;-54
2023/03/05 02:28:31;;;;;;;18.05;8.85;;;3.10;99.90;;;2.32;100.00;97410.16;4950580;28;20034;-53
2023/03/05 02:30:57;;;;;;;22.50;10.32;;;3.10;99.90;;;2.33;100.00;97405.81;4945263;28;20427;-54
2023/03/05 02:33:23;;;;;;;18.35;9.52;;;3.10;99.90;;;2.32;100.00;97406.72;4952437;28;20034;-54
2023/03/05 02:35:49;;;;;;;22.65;9.57;;;3.10;99.90;;;2.32;100.00;97415.38;4947344;28;20058;-56
2023/03/05 02:38:18;;;;;;;17.63;9.18;;;3.10;99.90;;;2.34;100.00;97407.56;4953525;28;20191;-52
2023/03/05 02:40:43;;;;;;;22.02;9.52;;;3.10;99.90;;;2.31;100.00;97403.22;4940659;28;20045;-51
2023/03/05 02:43:11;;;;;;;24.80;9.90;;;3.20;99.90;;;2.31;100.00;97400.63;4948185;28;20417;-54
2023/03/05 02:45:37;;;;;;;18.23;8.80;;;3.10;99.90;;;2.31;100.00;97398.00;4947778;28;20038;-54
2023/03/05 02:48:03;;;;;;;17.02;9.32;;;3.10;99.90;;;2.19;100.00;97372.94;4948656;28;20034;-54
2023/03/05 02:50:30;;;;;;;19.17;8.70;;;3.10;99.90;;;2.25;100.00;97382.44;4943370;28;20031;-55
2023/03/05 02:52:56;;;;;;;19.75;9.10;;;3.10;99.90;;;2.28;100.00;97388.50;4949271;28;20031;-55
2023/03/05 02:55:22;;;;;;;20.60;9.57;;;3.10;99.90;;;2.26;100.00;97390.25;4952670;28;20574;-54
2023/03/05 02:57:47;;;;;;;19.27;9.15;;;3.10;99.90;;;2.26;100.00;97384.16;4947236;28;20057;-54
2023/03/05 03:00:14;;;;;;;18.92;9.27;;;3.10;99.90;;;2.21;100.00;97375.53;4951549;28;20031;-55
2023/03/05 03:02:40;;;;;;;22.67;9.70;;;3.10;99.90;;;2.19;100.00;97379.84;4952495;28;20118;-51
2023/03/05 03:05:06;;;;;;;18.85;9.60;;;3.10;99.90;;;2.19;100.00;97379.84;4952845;28;20054;-53
2023/03/05 03:07:34;;;;;;;19.35;9.45;;;3.00;99.90;;;2.09;100.00;97366.88;4951949;28;20050;-53
2023/03/05 03:10:00;;;;;;;22.75;10.20;;;3.00;99.90;;;2.08;100.00;97369.47;4950375;28;20055;-55
2023/03/05 03:12:26;;;;;;;22.48;10.13;;;3.00;99.90;;;2.00;100.00;97366.91;4955729;28;20058;-54
2023/03/05 03:14:51;;;;;;;21.42;11.07;;;2.90;99.90;;;1.93;100.00;97360.00;4952743;28;20487;-53
2023/03/05 03:17:18;;;;;;;20.08;9.70;;;2.80;99.90;;;1.88;100.00;97369.53;4952615;28;20023;-54
2023/03/05 03:19:45;;;;;;;24.25;10.48;;;2.80;99.90;;;1.79;100.00;97359.19;4950195;28;20031;-53
2023/03/05 03:22:14;;;;;;;21.13;10.50;;;2.70;99.90;;;1.80;100.00;97363.53;4951359;28;20035;-54
2023/03/05 03:24:42;;;;;;;24.85;10.02;;;2.70;99.90;;;1.77;100.00;97366.97;4948816;28;20035;-54
2023/03/05 03:27:08;;;;;;;20.17;9.82;;;2.60;99.90;;;1.75;100.00;97370.47;4952697;28;20054;-53
2023/03/05 03:29:34;;;;;;;25.30;10.68;;;2.60;99.90;;;1.53;100.00;97341.91;4947805;28;20330;-55
2023/03/05 03:31:59;;;;;;;22.23;10.57;;;2.60;99.90;;;1.65;100.00;97360.09;4944066;28;20479;-52
2023/03/05 03:34:26;;;;;;;21.83;9.82;;;2.60;99.90;;;1.61;100.00;97353.16;4946157;28;20077;-54
2023/03/05 03:36:52;;;;;;;23.42;9.82;;;2.50;99.90;;;1.60;100.00;97360.94;4939571;28;20027;-52
2023/03/05 03:39:19;;;;;;;26.15;10.15;;;2.50;99.90;;;1.59;100.00;97339.28;4947494;28;23514;-54
2023/03/05 03:41:49;;;;;;;18.15;9.55;;;2.50;99.90;;;1.61;100.00;97347.09;4935335;28;20046;-52
2023/03/05 03:44:16;;;;;;;23.20;10.35;;;2.50;99.90;;;1.63;100.00;97343.59;4948273;28;21016;-53
2023/03/05 03:46:47;;;;;;;24.80;10.25;;;2.50;99.90;;;1.63;100.00;97343.59;4943135;28;20395;-56
2023/03/05 03:49:20;;;;;;;21.40;9.82;;;2.50;99.90;;;1.64;100.00;97337.56;4959272;28;20027;-55
2023/03/05 03:51:47;;;;;;;23.15;10.40;;;2.50;99.90;;;1.64;100.00;97336.69;4942435;28;20550;-54
2023/03/05 03:54:16;;;;;;;24.27;9.98;;;2.60;99.90;;;1.61;100.00;97332.34;4954115;28;20618;-52
2023/03/05 03:56:41;;;;;;;23.60;10.45;;;2.50;99.90;;;1.61;100.00;97331.50;4947823;28;20050;-54
2023/03/05 03:59:08;;;;;;;24.38;10.82;;;2.50;99.90;;;1.61;100.00;97327.16;4944594;28;20027;-53
2023/03/05 04:01:34;;;;;;;23.60;10.45;;;2.50;99.90;;;1.65;100.00;97334.09;4942755;28;20031;-54
2023/03/05 04:04:00;;;;;;;25.42;10.52;;;2.50;99.90;;;1.66;100.00;97325.41;4942272;28;20098;-53
2023/03/05 04:06:26;;;;;;;25.63;10.75;;;2.50;99.90;;;1.66;100.00;97329.75;4954276;28;20547;-55
2023/03/05 04:08:52;;;;;;;21.25;9.35;;;2.50;99.90;;;1.67;100.00;97324.56;4955605;28;20042;-52
2023/03/05 04:11:18;;;;;;;22.65;9.35;;;2.60;99.90;;;1.69;100.00;97322.81;4951530;28;20122;-52
2023/03/05 04:13:45;;;;;;;26.70;9.88;;;2.50;99.90;;;1.67;100.00;97323.66;4946849;28;20042;-53
2023/03/05 04:16:12;;;;;;;23.83;9.88;;;2.60;99.90;;;1.66;100.00;97333.22;4952440;28;20034;-55
2023/03/05 04:18:38;;;;;;;22.50;9.98;;;2.50;99.90;;;1.62;100.00;97323.69;4952850;28;20023;-50
2023/03/05 04:21:04;;;;;;;23.42;10.07;;;2.60;99.90;;;1.62;100.00;97322.84;4948919;28;20053;-50
2023/03/05 04:23:31;;;;;;;24.42;10.30;;;2.60;99.90;;;1.61;100.00;97326.28;4952616;28;20035;-53
2023/03/05 04:25:56;;;;;;;25.98;10.13;;;2.50;99.90;;;1.59;100.00;97312.44;4952498;28;20105;-56
2023/03/05 04:28:22;;;;;;;29.23;10.30;;;2.50;99.90;;;1.57;100.00;97316.78;4955795;28;20043;-53
2023/03/05 04:30:48;;;;;;;22.33;9.93;;;2.50;99.90;;;1.56;100.00;97313.28;4947230;28;20165;-53
2023/03/05 04:33:14;;;;;;;25.48;10.57;;;2.50;99.90;;;1.54;100.00;97312.44;4949670;28;20030;-54
2023/03/05 04:35:40;;;;;;;24.05;10.57;;;2.40;99.90;;;1.51;100.00;97309.88;4944484;28;20030;-52
2023/03/05 04:38:06;;;;;;;23.83;10.68;;;2.40;99.90;;;1.52;100.00;97311.59;4948195;28;20065;-55
2023/03/05 04:40:32;;;;;;;23.95;10.13;;;2.40;99.90;;;1.51;100.00;97313.31;4949044;28;20039;-54
2023/03/05 04:42:58;;;;;;;20.70;9.32;;;2.40;99.90;;;1.52;100.00;97316.78;4946892;28;20036;-51
2023/03/05 04:45:24;;;;;;;21.88;10.07;;;2.40;99.90;;;1.48;100.00;97307.28;4967134;28;20096;-54
2023/03/05 04:47:49;;;;;;;23.95;9.70;;;2.40;99.90;;;1.46;100.00;97303.81;4953525;28;20026;-55
2023/03/05 04:50:15;;;;;;;21.63;10.05;;;2.40;99.90;;;1.46;100.00;97303.81;4949696;28;20026;-53
2023/03/05 04:52:43;;;;;;;25.23;10.25;;;2.30;99.90;;;1.46;100.00;97306.41;4946458;28;20080;-55
2023/03/05 04:55:11;;;;;;;25.83;10.20;;;2.30;99.90;;;1.42;100.00;97302.06;4951531;28;20039;-54
2023/03/05 04:57:38;;;;;;;27.88;10.45;;;2.40;99.90;;;1.41;100.00;97298.63;4951599;28;20035;-55
2023/03/05 05:00:13;;;;;;;29.98;10.90;;;2.40;99.90;;;1.39;100.00;97294.31;4947864;28;20035;-53
2023/03/05 05:02:43;;;;;;;27.00;11.23;;;2.30;99.90;;;1.34;100.00;97292.56;4950783;28;20031;-51
2023/03/05 05:05:28;;;;;;;26.45;11.35;;;2.30;99.90;;;1.40;100.00;97290.81;4952228;28;20031;-50
2023/03/05 05:07:55;;;;;;;23.73;10.48;;;2.30;99.90;;;1.40;100.00;97296.00;4952253;28;20033;-52
2023/03/05 05:10:22;;;;;;;23.60;10.00;;;2.30;99.90;;;1.40;100.00;97291.72;4947329;28;20066;-53
2023/03/05 05:12:48;;;;;;;23.13;10.63;;;2.30;99.90;;;1.38;100.00;97293.41;4946521;28;20037;-53
2023/03/05 05:15:14;;;;;;;29.27;12.13;;;2.30;99.90;;;1.41;100.00;97292.56;4947436;28;20675;-54
2023/03/05 05:17:39;;;;;;;29.80;10.77;;;2.30;99.90;;;1.29;100.00;97272.66;4951670;28;20035;-55
2023/03/05 05:20:07;;;;;;;24.00;10.82;;;2.30;99.90;;;1.38;100.00;97284.75;4945328;28;20057;-54
2023/03/05 05:22:34;;;;;;;24.67;10.82;;;2.30;99.90;;;1.37;100.00;97285.66;4961981;28;20038;-53
2023/03/05 05:24:59;;;;;;;29.25;11.07;;;2.30;99.90;;;1.33;100.00;97277.84;4948898;28;20298;-54
2023/03/05 05:27:25;;;;;;;24.55;11.35;;;2.30;99.90;;;1.37;100.00;97285.66;4953031;28;20457;-55
2023/03/05 05:29:51;;;;;;;23.48;11.15;;;2.30;99.90;;;1.35;100.00;97285.66;4949145;28;20497;-54
2023/03/05 05:32:19;;;;;;;29.42;10.68;;;2.30;99.90;;;1.33;100.00;97280.44;4948267;28;20474;-53
2023/03/05 05:34:45;;;;;;;25.95;11.38;;;2.30;99.90;;;1.32;100.00;97281.31;4946858;28;20039;-54
2023/03/05 05:37:11;;;;;;;24.55;11.18;;;2.20;99.90;;;1.31;100.00;97290.00;4948116;28;21768;-55
2023/03/05 05:39:37;;;;;;;26.27;10.98;;;2.20;99.90;;;1.27;100.00;97280.44;4946511;28;20039;-53
2023/03/05 05:42:03;;;;;;;23.45;11.57;;;2.20;99.90;;;1.31;100.00;97284.78;4950443;28;20086;-53
2023/03/05 05:44:28;;;;;;;26.50;12.13;;;2.20;99.90;;;1.28;100.00;97278.75;4967829;28;20043;-51
2023/03/05 05:46:54;;;;;;;26.75;11.57;;;2.20;99.90;;;1.30;100.00;97288.25;4946523;28;20823;-54
2023/03/05 05:49:20;;;;;;;26.67;12.57;;;2.20;99.90;;;1.26;100.00;97278.75;4959847;28;20356;-53
2023/03/05 05:51:46;;;;;;;26.25;11.70;;;2.20;99.90;;;1.33;100.00;97290.00;4949521;28;20026;-54
2023/03/05 05:54:15;;;;;;;27.23;11.30;;;2.20;99.90;;;1.34;100.00;97292.56;4951252;28;20118;-55
2023/03/05 05:56:41;;;;;;;26.10;11.23;;;2.30;99.90;;;1.31;100.00;97291.69;4941133;28;20181;-54
2023/03/05 05:59:09;;;;;;;27.80;11.75;;;2.30;99.90;;;1.28;100.00;97289.13;4949178;28;20038;-52
2023/03/05 06:01:35;;;;;;;25.13;11.48;;;2.20;99.90;;;1.26;100.00;97286.53;4948558;28;20380;-54
2023/03/05 06:04:01;;;;;;;28.60;12.18;;;2.20;99.90;;;1.28;100.00;97286.53;4964104;28;20055;-55
2023/03/05 06:06:27;;;;;;;24.35;11.13;;;2.20;99.90;;;1.27;100.00;97285.66;4950441;28;20106;-51
2023/03/05 06:08:54;;;;;;;23.67;12.07;;;2.20;99.90;;;1.26;100.00;97291.72;4948494;28;20433;-52
2023/03/05 06:11:20;;;;;;;28.45;12.40;;;2.20;99.90;;;1.23;100.00;97281.34;4946524;28;20031;-54
2023/03/05 06:13:47;;;;;;;26.90;12.77;;;2.20;99.90;;;1.26;100.00;97283.06;4943664;28;20106;-54
2023/03/05 06:16:20;;;;;;;28.10;13.13;;;2.20;99.90;;;1.28;100.00;97299.53;4946889;28;21206;-54
2023/03/05 06:18:46;;;;;;;23.67;11.07;;;2.20;99.90;;;1.29;100.00;97291.72;4945144;28;20495;-55
2023/03/05 06:21:17;;;;;;;30.70;13.20;;;2.20;99.90;;;1.30;100.00;97293.44;4949544;28;20077;-55
2023/03/05 06:23:45;;;;;;;25.00;12.45;;;2.30;99.90;;;1.31;100.00;97292.59;4945200;28;20451;-54
2023/03/05 06:26:14;;;;;;;31.80;12.45;;;2.30;99.90;;;1.33;100.00;97285.66;4946559;28;20038;-53
2023/03/05 06:28:40;;;;;;;29.40;12.43;;;2.30;99.90;;;1.33;100.00;97290.84;4949010;28;20054;-54
2023/03/05 06:31:10;;;;;;;30.27;12.35;;;2.30;99.90;;;1.36;100.00;97286.50;4944935;28;20459;-55
2023/03/05 06:33:37;;;;;;;28.08;12.63;;;2.30;99.90;;;1.39;100.00;97291.72;4954091;28;20039;-53
2023/03/05 06:36:05;;;;;;;31.85;13.70;;;2.30;99.90;;;1.41;100.00;97295.16;4952525;28;20117;-54
2023/03/05 06:38:31;;;;;;;24.83;12.07;;;2.30;99.90;;;1.45;100.00;97281.28;4951322;28;20033;-54
2023/03/05 06:41:08;;;;;;;31.67;12.68;;;2.40;99.90;;;1.46;100.00;97280.44;4947689;28;20620;-56
2023/03/05 06:43:37;;;;;;;31.45;13.00;;;2.40;99.90;;;1.47;100.00;97282.13;4950255;28;20038;-54
2023/03/05 06:46:14;;;;;;;27.92;12.50;;;2.40;99.90;;;1.50;100.00;97283.00;4941673;28;20161;-55
2023/03/05 06:48:40;;;;;;;24.73;12.10;;;2.40;99.90;;;1.52;100.00;97280.41;4941917;28;20046;-54
2023/03/05 06:51:20;;;;;;;31.42;13.02;;;2.40;99.90;;;1.58;100.00;97276.91;4934938;28;20136;-55
2023/03/05 06:53:47;;;;;;;27.38;12.60;;;2.50;99.90;;;1.62;100.00;97282.09;4945667;28;20042;-55
2023/03/05 06:56:15;;;;;;;26.38;11.93;;;2.50;99.90;;;1.64;100.00;97277.75;4950763;28;20105;-53
2023/03/05 06:58:45;;;;;;;28.13;12.65;;;2.50;99.90;;;1.66;100.00;97273.41;4943771;28;20034;-53
2023/03/05 07:01:13;;;;;;;27.42;13.40;;;2.60;99.90;;;1.68;100.00;97276.00;4949481;28;20039;-53
2023/03/05 07:03:39;;;;;;;28.48;12.93;;;2.60;99.90;;;1.74;100.00;97285.53;4955959;28;20030;-52
2023/03/05 07:06:08;;;;;;;30.50;12.48;;;2.60;99.90;;;1.81;100.00;97284.63;4956800;28;20057;-53
2023/03/05 07:08:34;;;;;;;30.42;13.55;;;2.70;99.90;;;1.81;100.00;97274.22;4957781;28;20260;-51
2023/03/05 07:11:00;;;;;;;27.58;11.63;;;2.70;99.90;;;1.89;100.00;97277.66;4953055;28;20550;-53
2023/03/05 07:13:26;;;;;;;27.33;12.45;;;2.80;99.90;;;1.96;100.00;97268.09;4955331;28;20031;-50
2023/03/05 07:15:52;;;;;;;28.70;13.07;;;2.80;99.90;;;1.97;100.00;97275.03;4953444;28;20038;-51
2023/03/05 07:18:18;;;;;;;26.02;12.93;;;2.90;99.90;;;1.98;100.00;97279.38;4958386;28;20031;-54
2023/03/05 07:20:43;;;;;;;26.75;13.38;;;2.90;99.90;;;2.01;100.00;97274.13;4953935;28;20022;-53
2023/03/05 07:23:09;;;;;;;24.15;12.55;;;2.90;99.90;;;2.04;100.00;97277.56;4945779;28;20073;-55
2023/03/05 07:25:36;;;;;;;32.92;13.07;;;2.90;99.90;;;2.06;100.00;97277.56;4951625;28;20525;-51
2023/03/05 07:28:06;;;;;;;23.70;12.35;;;2.90;99.90;;;2.07;100.00;97277.56;4952487;28;20034;-53
2023/03/05 07:30:33;;;;;;;30.80;12.50;;;2.90;99.90;;;2.06;100.00;97280.16;4952390;28;20104;-54
2023/03/05 07:32:59;;;;;;;28.05;12.40;;;2.90;99.90;;;2.10;100.00;97277.56;4979000;23;20072;-39
2023/03/05 07:35:25;;;;;;;26.50;12.88;;;3.00;99.90;;;2.18;100.00;97271.44;4956060;28;20121;-39
2023/03/05 07:37:51;;;;;;;29.23;12.68;;;3.00;99.90;;;2.22;100.00;97270.56;4960013;28;20125;-39
2023/03/05 07:40:17;;;;;;;25.00;12.50;;;3.10;99.90;;;2.28;100.00;97262.72;4951144;28;20035;-39
2023/03/05 07:42:43;;;;;;;26.15;12.13;;;3.20;99.90;;;2.32;100.00;97268.78;4954084;28;20151;-39
2023/03/05 07:45:09;;;;;;;23.75;12.38;;;3.20;99.90;;;2.36;100.00;97273.94;4949544;28;20067;-38
2023/03/05 07:47:36;;;;;;;24.60;12.07;;;3.20;99.90;;;2.40;100.00;97273.03;4947338;28;20035;-39
2023/03/05 07:50:02;;;;;;;27.63;12.93;;;3.30;99.90;;;2.44;100.00;97269.56;4954997;28;20022;-39
2023/03/05 07:52:28;;;;;;;25.67;13.00;;;3.30;99.90;;;2.48;100.00;97260.00;4959615;28;20187;-39
2023/03/05 07:54:54;;;;;;;24.02;11.98;;;3.30;99.90;;;2.57;100.00;97266.88;4958356;28;20113;-39
2023/03/05 07:57:19;;;;;;;24.20;11.80;;;3.40;99.90;;;2.59;100.00;97258.16;4959390;28;20051;-39
2023/03/05 07:59:45;;;;;;;30.48;13.10;;;3.50;99.90;;;2.61;100.00;97265.97;4959804;28;20120;-39
2023/03/05 08:02:13;;;;;;;23.40;12.07;;;3.50;99.90;;;2.61;100.00;97269.41;4956262;28;20026;-39
2023/03/05 08:04:41;;;;;;;27.63;11.45;;;3.50;99.90;;;2.68;100.00;97270.25;4959273;28;20038;-39
2023/03/05 08:07:06;;;;;;;27.98;11.88;;;3.50;99.90;;;2.72;100.00;97268.47;4962868;28;20507;-39
2023/03/05 08:09:32;;;;;;;25.85;12.25;;;3.60;99.90;;;2.65;100.00;97255.50;4951315;28;20089;-39
2023/03/05 08:11:58;;;;;;;25.42;12.50;;;3.60;99.90;;;2.74;100.00;97254.56;4955719;28;20109;-39
2023/03/05 08:14:24;;;;;;;27.50;12.82;;;3.60;99.90;;;2.95;100.00;97263.09;4957443;28;20046;-39
2023/03/05 08:16:51;;;;;;;27.02;12.65;;;3.70;99.90;;;2.95;100.00;97269.16;4950829;28;20423;-39
2023/03/05 08:19:20;;;;;;;23.60;11.82;;;3.80;99.90;;;2.94;100.00;97269.16;4954568;28;20479;-39
2023/03/05 08:21:46;;;;;;;30.70;12.07;;;3.80;99.90;;;2.89;100.00;97266.59;4952691;28;20239;-39
2023/03/05 08:24:13;;;;;;;25.70;12.25;;;3.80;99.90;;;2.91;100.00;97267.47;4959522;28;20031;-39
2023/03/05 08:26:40;;;;;;;21.25;11.32;;;3.80;99.90;;;3.01;100.00;97268.22;4951419;28;20485;-39
2023/03/05 08:29:07;;;;;;;22.65;11.65;;;3.90;99.90;;;3.09;100.00;97269.03;4949663;28;20031;-39
2023/03/05 08:31:33;;;;;;;27.88;12.05;;;3.90;99.90;;;3.12;100.00;97260.31;4949395;28;20117;-39
2023/03/05 08:34:00;;;;;;;23.35;11.57;;;4.00;99.90;;;3.25;100.00;97270.59;4957587;28;20166;-39
2023/03/05 08:36:27;;;;;;;26.15;11.43;;;4.10;99.90;;;3.18;100.00;97226.38;4948853;28;20039;-39
2023/03/05 08:38:54;;;;;;;24.95;11.73;;;4.20;99.90;;;3.44;100.00;97254.75;4947719;28;20035;-39
2023/03/05 08:41:20;;;;;;;25.92;11.20;;;4.30;99.90;;;3.50;100.00;97269.47;4957848;28;20425;-39
2023/03/05 08:43:46;;;;;;;26.73;12.45;;;4.30;99.90;;;3.46;100.00;97257.34;4953620;28;20149;-39
2023/03/05 08:46:12;;;;;;;22.55;12.20;;;4.30;99.90;;;3.53;100.00;97252.03;4954706;28;20038;-39
2023/03/05 08:48:39;;;;;;;25.20;12.52;;;4.40;99.90;;;3.58;100.00;97257.22;4951662;28;20038;-39
2023/03/05 08:51:07;;;;;;;23.90;12.82;;;4.40;99.90;;;3.63;100.00;97251.06;4951410;28;20026;-39
2023/03/05 08:53:33;;;;;;;22.90;11.80;;;4.50;99.90;;;3.63;100.00;97232.81;4952492;28;20117;-39
2023/03/05 08:56:00;;;;;;;26.20;12.65;;;4.60;99.90;;;3.80;100.00;97250.00;4949342;28;20035;-39
2023/03/05 08:58:26;;;;;;;24.70;11.75;;;4.60;99.90;;;3.82;100.00;97237.78;4969228;28;20406;-39
2023/03/05 09:00:52;;;;;;;22.95;11.93;;;4.70;99.90;;;3.91;100.00;97253.34;4952964;28;20084;-39
2023/03/05 09:03:18;;;;;;;22.38;11.57;;;4.70;99.90;;;3.90;100.00;97248.16;4950768;28;20118;-39
2023/03/05 09:05:44;;;;;;;27.42;12.57;;;4.70;99.90;;;3.89;100.00;97241.19;4952035;28;20069;-39
2023/03/05 09:08:10;;;;;;;24.70;12.52;;;4.70;99.90;;;3.89;100.00;97241.19;4958896;28;20126;-39
2023/03/05 09:10:35;;;;;;;26.73;12.18;;;4.70;99.90;;;3.75;100.00;97218.78;4952337;28;20394;-39
2023/03/05 09:13:02;;;;;;;25.48;11.93;;;4.80;99.90;;;4.00;100.00;97244.50;4954698;28;20375;-39
2023/03/05 09:15:29;;;;;;;21.30;11.88;;;4.80;99.90;;;4.13;100.00;97247.84;4952634;28;20035;-39
2023/03/05 09:18:04;;;;;;;22.50;11.77;;;4.90;99.90;;;4.19;100.00;97239.91;5104068;27;20746;-39
2023/03/05 09:20:30;;;;;;;23.02;11.77;;;5.00;99.90;;;4.21;100.00;97244.22;5078034;27;20027;-39
2023/03/05 09:22:56;;;;;;;26.23;12.27;;;5.00;99.90;;;4.25;100.00;97232.00;5073227;28;20509;-39
2023/03/05 09:25:21;;;;;;;25.92;12.95;;;5.10;99.90;;;4.24;100.00;97240.72;5081424;28;20535;-39
2023/03/05 09:27:47;;;;;;;26.63;13.05;;;5.20;99.90;;;4.31;100.00;97229.31;5077562;28;20055;-39
2023/03/05 09:30:14;;;;;;;25.63;12.70;;;5.10;99.90;;;4.35;100.00;97225.75;5087372;28;20056;-39
2023/03/05 09:32:39;;;;;;;27.90;13.18;;;5.20;99.90;;;4.36;100.00;97229.22;5078566;28;20024;-39
2023/03/05 09:35:06;;;;;;;27.15;13.20;;;5.20;99.90;;;4.26;100.00;97217.22;5080499;28;20089;-39
2023/03/05 09:37:32;;;;;;;25.08;12.43;;;5.20;99.90;;;4.42;100.00;97218.69;5078187;28;20560;-39
2023/03/05 09:39:58;;;;;;;32.00;12.70;;;5.20;99.90;;;4.48;100.00;97209.91;5077074;28;20107;-39
2023/03/05 09:43:10;;;;;;;28.45;12.07;;;5.30;99.90;;;4.42;100.00;97221.31;5076436;28;20040;-39
2023/03/05 09:45:41;;;;;;;29.42;11.93;;;5.30;99.90;;;4.47;100.00;97213.38;5077930;28;20066;-39
2023/03/05 09:48:21;;;;;;;22.67;11.63;;;5.30;99.90;;;4.57;100.00;97215.81;5079978;28;20023;-39
2023/03/05 09:50:59;;;;;;;23.50;12.18;;;5.30;99.90;;;4.50;100.00;97182.88;5079333;28;20040;-39
2023/03/05 09:53:37;;;;;;;27.35;10.95;;;5.40;99.90;;;4.76;100.00;97213.78;5082195;28;20357;-39
2023/03/05 09:56:11;;;;;;;26.33;11.95;;;5.50;99.90;;;4.95;100.00;97208.25;5081632;28;20061;-39
2023/03/05 09:58:46;;;;;;;31.88;12.27;;;5.70;99.90;;;4.89;100.00;97205.75;5079286;28;20112;-39
2023/03/05 10:01:21;;;;;;;24.73;12.55;;;5.80;99.90;;;4.86;100.00;97201.41;5075000;28;20506;-39
2023/03/05 10:03:55;;;;;;;23.10;12.07;;;5.80;99.90;;;4.98;98.92;97200.34;5075525;28;20879;-39
2023/03/05 10:06:49;;;;;;;23.00;11.90;;;5.80;99.90;;;5.06;95.72;97171.44;5081883;28;20561;-39
2023/03/05 10:09:56;;;;;;;27.30;12.45;;;5.90;99.90;;;5.06;93.86;97195.88;5080425;28;20043;-39
2023/03/05 10:12:45;;;;;;;23.10;11.07;;;6.00;99.90;;;5.16;94.13;97200.00;5077205;28;20522;-39
2023/03/05 10:15:14;;;;;;;25.65;11.98;;;5.90;99.90;;;5.16;93.07;97205.25;5075056;28;20047;-39
2023/03/05 10:18:00;;;;;;;22.33;13.05;;;5.90;99.90;;;5.14;94.39;97196.56;5080601;28;20032;-39
2023/03/05 10:20:53;;;;;;;20.15;11.48;;;5.90;99.90;;;5.16;93.82;97197.41;5084428;28;20028;-39